Time;durP1;ratioP1;P1;durP2;ratioP2;P2;SDS_P1;SDS_P2;PMS_P1;PMS_P2;Temp;Humidity;BMP_temperature;BMP_pressure;BME280_temperature;BME280_humidity;BME280_pressure;Samples;Min_cycle;Max_cycle;Signal;HPM_P1;HPM_P2
2022/12/27 00:02:04;;;;;;;11.55;1.98;;;8.40;99.70;;;;;;10447611;28;20433;-25
2022/12/27 00:07:06;;;;;;;9.10;1.38;;;8.30;99.90;;;;;;10456262;28;20053;-26
2022/12/27 00:12:09;;;;;;;7.75;1.60;;;8.20;98.10;;;;;;10439388;28;20572;-29
2022/12/27 00:17:11;;;;;;;14.40;1.90;;;8.00;99.30;;;;;;10456879;28;20060;-26
2022/12/27 00:22:13;;;;;;;15.68;1.80;;;7.80;99.30;;;;;;10452727;28;20061;-26
2022/12/27 00:27:16;;;;;;;9.38;1.50;;;8.30;99.00;;;;;;10460082;28;20075;-28
2022/12/27 00:32:18;;;;;;;16.38;2.28;;;8.70;97.10;;;;;;10454283;28;20040;-28
2022/12/27 00:37:20;;;;;;;4.10;1.33;;;8.10;97.80;;;;;;10459109;28;20056;-25
2022/12/27 00:42:23;;;;;;;9.00;2.03;;;8.90;97.80;;;;;;10462607;28;20041;-26
2022/12/27 00:47:25;;;;;;;;;;;8.50;99.90;;;;;;10443935;28;20053;-26
2022/12/27 00:52:26;;;;;;;13.10;2.17;;;8.70;99.90;;;;;;10463584;28;19974;-24
2022/12/27 00:57:30;;;;;;;9.43;1.83;;;8.00;99.90;;;;;;10451725;28;20140;-24
2022/12/27 01:02:32;;;;;;;;;;;8.00;99.90;;;;;;10449406;28;20065;-25
2022/12/27 01:07:34;;;;;;;9.95;1.90;;;8.00;99.90;;;;;;10444201;28;19921;-27
2022/12/27 01:12:37;;;;;;;10.75;2.20;;;8.30;99.90;;;;;;10447066;28;20127;-25
2022/12/27 01:17:39;;;;;;;12.70;2.83;;;8.10;99.90;;;;;;10449322;28;20041;-24
2022/12/27 01:22:40;;;;;;;13.48;2.25;;;7.70;99.90;;;;;;10447786;28;20060;-26
2022/12/27 01:27:44;;;;;;;19.38;3.85;;;8.20;99.90;;;;;;10452404;28;20844;-26
2022/12/27 01:32:46;;;;;;;19.33;4.50;;;8.30;99.90;;;;;;10443410;28;20083;-27
2022/12/27 01:37:47;;;;;;;9.63;1.70;;;7.90;99.90;;;;;;10446375;28;20182;-26
2022/12/27 01:42:54;;;;;;;16.13;3.55;;;8.70;99.90;;;;;;10448051;28;20099;-25
2022/12/27 01:48:01;;;;;;;9.60;1.55;;;8.70;99.70;;;;;;10456234;28;20407;-24
2022/12/27 01:53:08;;;;;;;5.97;1.50;;;8.90;99.90;;;;;;10448914;28;20073;-23
2022/12/27 01:58:16;;;;;;;10.45;3.42;;;9.10;99.90;;;;;;10464315;28;20048;-25
2022/12/27 02:03:22;;;;;;;20.67;3.42;;;8.60;99.90;;;;;;10443096;28;20107;-25
2022/12/27 02:08:33;;;;;;;23.00;3.78;;;8.00;99.90;;;;;;10446262;28;20446;-25
2022/12/27 02:13:40;;;;;;;10.60;2.35;;;8.20;99.90;;;;;;10448212;28;20053;-25
2022/12/27 02:18:43;;;;;;;14.70;2.05;;;7.80;99.90;;;;;;10444996;28;20087;-30
2022/12/27 02:24:33;;;;;;;14.32;1.83;;;7.90;99.90;;;;;;10448523;28;20641;-26
2022/12/27 02:29:49;;;;;;;14.63;2.63;;;8.50;99.90;;;;;;10440800;28;20055;-27
2022/12/27 02:35:01;;;;;;;8.43;1.67;;;8.70;99.90;;;;;;10446717;28;20088;-25
2022/12/27 03:07:27;;;;;;;14.73;2.08;;;9.40;95.70;;;;;;10457576;28;20187;-25
2022/12/27 03:18:12;;;;;;;15.43;1.67;;;10.00;95.30;;;;;;10437331;28;20056;-23
2022/12/27 03:39:31;;;;;;;9.70;1.58;;;8.80;99.90;;;;;;10473007;28;20044;-27
2022/12/27 03:44:33;;;;;;;8.60;1.52;;;8.60;97.80;;;;;;10451096;28;20508;-26
2022/12/27 03:49:41;;;;;;;10.98;1.60;;;8.20;99.90;;;;;;10452335;28;20572;-26
2022/12/27 03:54:45;;;;;;;5.43;1.10;;;7.60;99.90;;;;;;10439662;28;20053;-27
2022/12/27 03:59:47;;;;;;;9.77;1.92;;;8.10;99.90;;;;;;10439543;28;20044;-27
2022/12/27 04:04:51;;;;;;;11.65;1.55;;;8.60;99.10;;;;;;10464057;28;20069;-26
2022/12/27 04:36:32;;;;;;;18.95;2.13;;;8.30;99.90;;;;;;10459806;28;20049;-25
2022/12/27 04:57:40;;;;;;;10.63;1.38;;;8.80;99.90;;;;;;10446949;28;20049;-24
2022/12/27 05:02:42;;;;;;;13.40;1.42;;;8.30;99.90;;;;;;10461437;28;20544;-25
2022/12/27 05:18:25;;;;;;;6.45;1.35;;;8.30;99.90;;;;;;10433644;28;20056;-25
2022/12/27 05:28:48;;;;;;;5.50;1.23;;;10.10;98.50;;;;;;10444110;28;20132;-27
2022/12/27 05:33:50;;;;;;;4.35;1.50;;;8.60;99.90;;;;;;10444477;28;20056;-25
2022/12/27 05:38:54;;;;;;;9.82;1.40;;;7.90;99.90;;;;;;10448824;28;20077;-25
2022/12/27 05:43:55;;;;;;;10.18;1.63;;;9.30;99.90;;;;;;10458598;28;20072;-25
2022/12/27 05:48:57;;;;;;;15.70;2.22;;;8.20;99.90;;;;;;10460701;28;20083;-26
2022/12/27 05:54:00;;;;;;;10.35;1.50;;;8.20;98.20;;;;;;10450128;28;20049;-26
2022/12/27 05:59:03;;;;;;;12.35;2.40;;;8.20;99.90;;;;;;10446968;28;20453;-27
2022/12/27 06:04:05;;;;;;;15.60;1.40;;;8.60;97.20;;;;;;10448339;28;20070;-26
2022/12/27 06:09:08;;;;;;;10.68;1.05;;;8.40;99.90;;;;;;10450367;28;20123;-25
2022/12/27 06:14:10;;;;;;;11.90;1.40;;;8.50;97.90;;;;;;10451611;28;20048;-26
2022/12/27 06:19:12;;;;;;;4.75;1.50;;;9.10;99.90;;;;;;10453156;28;20041;-26
2022/12/27 06:24:15;;;;;;;9.82;1.27;;;9.40;99.40;;;;;;10454116;28;20057;-26
2022/12/27 06:29:17;;;;;;;13.57;2.38;;;8.80;95.60;;;;;;10438071;28;20056;-25
2022/12/27 06:34:19;;;;;;;6.40;1.50;;;8.50;99.90;;;;;;10442295;28;20130;-25
2022/12/27 06:39:22;;;;;;;12.18;2.13;;;9.70;95.80;;;;;;10449653;28;20069;-25
2022/12/27 06:44:25;;;;;;;4.60;1.33;;;9.90;98.00;;;;;;10456272;28;20410;-25
2022/12/27 06:49:27;;;;;;;6.50;1.38;;;9.20;99.90;;;;;;10446359;28;20132;-25
2022/12/27 06:54:30;;;;;;;4.70;0.85;;;11.80;91.90;;;;;;10441457;28;20049;-25
2022/12/27 06:59:32;;;;;;;5.40;1.20;;;11.90;93.60;;;;;;10427969;28;20072;-26
2022/12/27 07:15:30;;;;;;;4.70;1.23;;;13.00;91.20;;;;;;10492530;27;20120;-25
2022/12/27 07:20:31;;;;;;;5.03;1.17;;;13.20;87.00;;;;;;10470519;28;20044;-25
2022/12/27 07:25:33;;;;;;;14.15;4.05;;;13.30;90.10;;;;;;10456906;28;20045;-25
2022/12/27 07:30:40;;;;;;;4.45;1.10;;;11.70;81.20;;;;;;10457326;28;20146;-22
2022/12/27 07:35:42;;;;;;;5.47;1.23;;;11.20;92.40;;;;;;10471262;28;20473;-26
2022/12/27 07:40:44;;;;;;;3.05;1.20;;;11.70;94.30;;;;;;10488894;28;20157;-24
2022/12/27 07:45:47;;;;;;;2.55;0.95;;;12.30;94.00;;;;;;10492644;28;20048;-25
2022/12/27 07:50:54;;;;;;;2.33;0.98;;;13.50;89.40;;;;;;10463828;28;20457;-25
2022/12/27 07:55:56;;;;;;;1.42;0.70;;;14.90;77.70;;;;;;10473532;28;20045;-25
2022/12/27 08:00:59;;;;;;;0.77;0.57;;;15.50;73.30;;;;;;10472988;28;20080;-25
2022/12/27 08:06:01;;;;;;;6.07;0.95;;;15.10;76.20;;;;;;10477730;28;20045;-26
2022/12/27 08:11:04;;;;;;;5.27;1.00;;;14.90;75.50;;;;;;10477887;28;20049;-27
2022/12/27 08:16:09;;;;;;;3.70;1.00;;;15.00;77.50;;;;;;10481051;28;21069;-29
2022/12/27 08:21:11;;;;;;;2.97;0.95;;;15.40;75.00;;;;;;10476860;28;20077;-27
2022/12/27 08:26:13;;;;;;;1.90;0.80;;;15.40;75.60;;;;;;10445024;28;20453;-25
2022/12/27 08:31:17;;;;;;;4.73;1.07;;;14.70;80.40;;;;;;10443240;28;20100;-27
2022/12/27 08:36:18;;;;;;;4.88;1.30;;;14.70;80.00;;;;;;10451323;28;20037;-25
2022/12/27 08:41:20;;;;;;;2.47;0.90;;;14.50;83.60;;;;;;10462497;28;20131;-26
2022/12/27 08:46:24;;;;;;;3.10;0.87;;;14.40;79.60;;;;;;10460869;28;20045;-25
2022/12/27 08:51:26;;;;;;;3.58;1.35;;;15.20;78.10;;;;;;10453084;28;20073;-26
2022/12/27 08:56:28;;;;;;;4.00;0.70;;;15.70;74.20;;;;;;10454384;28;20091;-28
2022/12/27 09:01:31;;;;;;;6.50;1.30;;;15.60;74.70;;;;;;10447897;28;20045;-24
2022/12/27 09:06:33;;;;;;;5.53;1.23;;;14.70;71.50;;;;;;10435126;28;20057;-26
2022/12/27 09:11:35;;;;;;;3.67;1.07;;;14.50;82.80;;;;;;10441261;28;20402;-25
2022/12/27 09:16:39;;;;;;;8.90;1.00;;;14.70;92.40;;;;;;10428433;28;20565;-27
2022/12/27 09:21:42;;;;;;;2.10;0.80;;;16.10;80.70;;;;;;10444853;28;20107;-26
2022/12/27 09:26:44;;;;;;;7.20;1.25;;;15.50;84.80;;;;;;10440470;28;20052;-28
2022/12/27 09:31:47;;;;;;;5.37;1.00;;;14.90;83.50;;;;;;10428155;28;20077;-27
2022/12/27 09:36:49;;;;;;;8.13;2.13;;;13.70;83.40;;;;;;10439070;28;20479;-25
2022/12/27 09:41:58;;;;;;;11.32;2.08;;;12.30;93.30;;;;;;10445677;28;20075;-26
2022/12/27 09:47:06;;;;;;;9.63;2.35;;;11.20;93.40;;;;;;10442171;28;20115;-25
2022/12/27 09:52:14;;;;;;;9.13;1.73;;;11.70;93.80;;;;;;10449599;28;20084;-26
2022/12/27 09:57:19;;;;;;;3.42;1.00;;;11.40;91.60;;;;;;10456198;28;20036;-26
2022/12/27 10:02:24;;;;;;;4.90;0.80;;;13.50;94.20;;;;;;10437531;28;20099;-26
2022/12/27 10:07:34;;;;;;;4.68;1.00;;;14.20;90.50;;;;;;10445336;28;20753;-25
2022/12/27 10:13:01;;;;;;;4.10;1.00;;;15.20;80.60;;;;;;10443233;28;20053;-25
2022/12/27 10:18:13;;;;;;;5.07;0.75;;;15.60;77.50;;;;;;10453043;28;20067;-25
2022/12/27 10:23:20;;;;;;;8.50;1.73;;;14.20;89.00;;;;;;10440025;28;20470;-26
2022/12/27 10:28:26;;;;;;;3.10;0.70;;;13.80;90.20;;;;;;10446983;28;20095;-27
2022/12/27 10:33:32;;;;;;;3.42;0.73;;;14.90;83.80;;;;;;10442078;28;20418;-25
2022/12/27 10:38:34;;;;;;;2.45;1.02;;;15.30;80.10;;;;;;10442548;28;20048;-27
2022/12/27 10:43:39;;;;;;;5.95;1.17;;;14.40;84.80;;;;;;10451245;28;20102;-24
2022/12/27 10:48:54;;;;;;;2.08;1.05;;;14.50;83.30;;;;;;10450772;28;20076;-25
2022/12/27 10:54:00;;;;;;;2.72;1.00;;;15.10;82.60;;;;;;10454653;28;20041;-25
2022/12/27 10:59:11;;;;;;;10.10;2.30;;;14.30;86.70;;;;;;10458391;28;20064;-25
2022/12/27 11:04:18;;;;;;;2.42;1.02;;;12.90;92.60;;;;;;10442142;28;20535;-26
2022/12/27 11:09:29;;;;;;;12.73;1.98;;;13.90;91.40;;;;;;10431080;28;20830;-28
2022/12/27 11:14:31;;;;;;;8.68;1.67;;;11.80;92.70;;;;;;10453981;28;20094;-26
2022/12/27 11:19:34;;;;;;;11.73;2.33;;;12.30;96.70;;;;;;10456315;28;20053;-25
2022/12/27 11:24:37;;;;;;;4.72;1.08;;;11.20;95.00;;;;;;10469035;28;20052;-25
2022/12/27 11:29:40;;;;;;;3.13;0.82;;;13.10;92.50;;;;;;10445169;28;20485;-26
2022/12/27 11:34:47;;;;;;;8.93;2.20;;;13.10;92.20;;;;;;10446829;28;20510;-24
2022/12/27 11:39:51;;;;;;;8.90;3.15;;;12.00;91.60;;;;;;10442560;28;20504;-24
2022/12/27 11:45:04;;;;;;;4.57;1.70;;;11.40;97.10;;;;;;10439881;28;20143;-27
2022/12/27 11:50:27;;;;;;;4.57;2.25;;;11.60;99.20;;;;;;10440427;28;20168;-25
2022/12/27 11:55:52;;;;;;;11.77;2.17;;;10.60;99.90;;;;;;10441472;28;20107;-27
2022/12/27 12:01:00;;;;;;;4.28;1.10;;;11.00;97.30;;;;;;10446125;28;20044;-29
2022/12/27 12:06:13;;;;;;;15.15;2.60;;;11.70;94.70;;;;;;10447373;28;20432;-25
2022/12/27 12:11:23;;;;;;;5.75;1.65;;;10.70;99.90;;;;;;10455732;28;20061;-25
2022/12/27 12:16:50;;;;;;;8.63;1.92;;;11.50;99.00;;;;;;10442988;28;20111;-27
2022/12/27 12:22:12;;;;;;;6.05;1.90;;;11.00;96.80;;;;;;10444551;28;20081;-24
2022/12/27 12:27:39;;;;;;;6.68;1.95;;;11.00;97.40;;;;;;10443826;28;20126;-25
2022/12/27 12:32:56;;;;;;;9.75;2.10;;;11.10;99.90;;;;;;10443328;28;20899;-26
2022/12/27 12:38:09;;;;;;;6.05;2.33;;;11.70;94.70;;;;;;10449102;28;20095;-25
2022/12/27 12:43:31;;;;;;;10.65;2.70;;;11.10;99.90;;;;;;10447713;28;20138;-25
2022/12/27 12:48:58;;;;;;;6.45;1.30;;;11.70;96.10;;;;;;10441141;28;20045;-25
2022/12/27 12:54:10;;;;;;;13.43;3.40;;;12.10;95.10;;;;;;10431062;28;20068;-23
2022/12/27 12:59:29;;;;;;;13.13;2.97;;;11.30;94.40;;;;;;10438869;28;20128;-25
2022/12/27 13:04:41;;;;;;;6.38;2.25;;;10.40;99.90;;;;;;10435919;28;20130;-24
2022/12/27 13:09:55;;;;;;;3.92;1.80;;;10.80;98.80;;;;;;10445058;28;20482;-26
2022/12/27 13:15:15;;;;;;;5.03;1.40;;;11.80;99.20;;;;;;10443421;28;20085;-26
2022/12/27 13:20:43;;;;;;;7.82;1.58;;;11.50;98.60;;;;;;10425360;28;20072;-25
2022/12/27 13:25:52;;;;;;;5.03;1.17;;;12.40;94.80;;;;;;10450568;28;20096;-28
2022/12/27 13:30:58;;;;;;;2.03;1.30;;;13.30;92.70;;;;;;10446951;28;20080;-26
2022/12/27 13:36:12;;;;;;;8.68;2.13;;;12.90;92.20;;;;;;10441999;28;20539;-25
2022/12/27 13:41:24;;;;;;;4.90;0.98;;;11.80;96.90;;;;;;10446037;28;20163;-28
2022/12/27 13:46:50;;;;;;;1.87;0.70;;;12.00;97.80;;;;;;10449349;28;20438;-24
2022/12/27 13:51:56;;;;;;;2.58;1.30;;;13.40;93.70;;;;;;10446233;28;20406;-25
2022/12/27 13:57:10;;;;;;;5.05;1.85;;;11.30;99.20;;;;;;10447574;28;20041;-25
2022/12/27 14:02:50;;;;;;;6.20;1.38;;;11.10;96.10;;;;;;10437420;28;20044;-26
2022/12/27 14:08:03;;;;;;;4.43;0.93;;;12.50;95.80;;;;;;10430008;28;20142;-27
2022/12/27 14:13:08;;;;;;;4.57;2.15;;;13.30;94.40;;;;;;10443993;28;20103;-26
2022/12/27 14:18:26;;;;;;;9.77;2.08;;;11.80;91.10;;;;;;10444898;28;20139;-25
2022/12/27 14:23:41;;;;;;;6.93;2.28;;;12.00;97.10;;;;;;10451240;28;20818;-25
2022/12/27 14:29:20;;;;;;;4.78;1.30;;;12.60;87.50;;;;;;10445943;28;20137;-25
2022/12/27 14:35:03;;;;;;;2.70;1.30;;;13.10;94.80;;;;;;10462269;28;20056;-23
2022/12/27 14:40:28;;;;;;;6.45;2.40;;;12.50;96.00;;;;;;10430407;28;20045;-26
2022/12/27 14:45:58;;;;;;;2.58;1.00;;;11.40;97.80;;;;;;10437572;28;20095;-25
2022/12/27 14:51:33;;;;;;;4.45;1.38;;;12.90;87.00;;;;;;10442653;28;20150;-25
2022/12/27 14:56:45;;;;;;;11.10;2.55;;;13.60;92.40;;;;;;10437346;28;20071;-26
2022/12/27 15:02:00;;;;;;;3.72;1.75;;;12.50;90.80;;;;;;10418825;28;20402;-25
2022/12/27 15:07:23;;;;;;;6.15;2.13;;;12.50;95.90;;;;;;10420844;28;20552;-25
2022/12/27 15:12:34;;;;;;;4.88;1.30;;;13.00;94.80;;;;;;10425420;28;20061;-25
2022/12/27 15:17:53;;;;;;;3.38;1.30;;;13.90;92.40;;;;;;10453446;28;20140;-25
2022/12/27 15:23:03;;;;;;;4.82;1.13;;;14.10;78.20;;;;;;10441335;28;20049;-30
2022/12/27 15:28:14;;;;;;;1.73;0.73;;;14.80;86.90;;;;;;10449088;28;20076;-26
2022/12/27 15:33:27;;;;;;;2.63;1.20;;;15.70;79.30;;;;;;10448614;28;20408;-25
2022/12/27 15:38:45;;;;;;;2.92;1.02;;;15.30;82.10;;;;;;10449945;28;20714;-28
2022/12/27 15:44:10;;;;;;;1.70;0.70;;;15.80;78.40;;;;;;10445813;28;20053;-26
2022/12/27 15:49:24;;;;;;;3.13;1.20;;;16.20;76.00;;;;;;10445668;28;20068;-27
2022/12/27 15:54:45;;;;;;;2.45;0.90;;;15.50;81.10;;;;;;10436958;28;21014;-26
2022/12/27 15:59:50;;;;;;;5.07;1.25;;;15.10;85.90;;;;;;10452663;28;20084;-24
2022/12/27 16:04:55;;;;;;;5.80;2.03;;;15.10;85.70;;;;;;10434631;28;20049;-26
2022/12/27 16:09:58;;;;;;;9.60;2.40;;;15.40;81.20;;;;;;10438948;28;20063;-24
2022/12/27 16:15:33;;;;;;;12.15;2.88;;;13.40;93.10;;;;;;10457129;28;20175;-25
2022/12/27 16:20:36;;;;;;;4.57;1.38;;;12.20;98.20;;;;;;10455243;28;20080;-25
2022/12/27 16:25:40;;;;;;;4.40;1.50;;;14.90;87.90;;;;;;10459564;28;20074;-27
2022/12/27 16:30:46;;;;;;;3.40;0.85;;;15.80;81.30;;;;;;10468528;28;20140;-26
2022/12/27 16:36:06;;;;;;;1.38;0.75;;;16.10;78.90;;;;;;10458708;28;20102;-25
2022/12/27 16:41:15;;;;;;;8.23;2.42;;;15.00;89.40;;;;;;10460072;28;20064;-25
2022/12/27 16:46:49;;;;;;;1.40;1.08;;;14.40;87.00;;;;;;10443710;28;20481;-26
2022/12/27 16:52:06;;;;;;;2.38;1.05;;;15.70;84.00;;;;;;10439616;28;20085;-25
2022/12/27 16:57:33;;;;;;;2.97;0.73;;;15.20;83.70;;;;;;10444851;28;20064;-22
2022/12/27 17:02:40;;;;;;;5.30;3.15;;;15.10;77.50;;;;;;10435266;28;20144;-27
2022/12/27 17:07:50;;;;;;;3.05;1.35;;;14.80;90.20;;;;;;10438306;28;20103;-25
2022/12/27 17:12:55;;;;;;;6.40;1.52;;;15.50;85.60;;;;;;10428269;28;20080;-25
2022/12/27 17:18:06;;;;;;;3.25;1.08;;;16.10;79.60;;;;;;10449295;28;20555;-26
2022/12/27 17:23:11;;;;;;;5.55;1.60;;;15.30;84.20;;;;;;10452929;28;20139;-27
2022/12/27 17:28:17;;;;;;;4.20;1.75;;;15.20;81.40;;;;;;10444245;28;20132;-25
2022/12/27 17:33:34;;;;;;;7.32;2.08;;;14.30;88.00;;;;;;10455152;28;20072;-24
2022/12/27 17:38:49;;;;;;;7.07;2.10;;;13.30;86.90;;;;;;10450941;28;20040;-26
2022/12/27 17:49:26;;;;;;;7.22;1.83;;;13.00;91.10;;;;;;10446586;28;20052;-27
2022/12/27 17:59:50;;;;;;;3.53;1.40;;;13.70;93.80;;;;;;10441744;28;20049;-25
2022/12/27 18:04:54;;;;;;;4.33;1.43;;;14.60;89.90;;;;;;10438059;28;20102;-24
2022/12/27 18:10:01;;;;;;;2.45;1.10;;;14.70;90.20;;;;;;10428886;28;20049;-25
2022/12/27 18:15:08;;;;;;;3.88;0.95;;;14.80;90.30;;;;;;10444884;28;20053;-27
2022/12/27 18:20:31;;;;;;;4.57;1.13;;;15.00;89.40;;;;;;10438633;28;20620;-25
2022/12/27 18:25:39;;;;;;;6.55;2.20;;;15.70;77.90;;;;;;10450187;28;20041;-27
2022/12/27 18:30:46;;;;;;;7.65;1.75;;;12.80;95.30;;;;;;10443186;28;20148;-26
2022/12/27 18:35:50;;;;;;;5.40;2.00;;;13.00;95.60;;;;;;10448276;28;20092;-26
2022/12/27 18:41:02;;;;;;;4.43;2.20;;;12.20;91.20;;;;;;10432331;28;20095;-25
2022/12/27 18:46:05;;;;;;;11.57;2.20;;;12.80;78.80;;;;;;10443740;28;20391;-27
2022/12/27 18:51:08;;;;;;;5.47;1.67;;;12.10;99.90;;;;;;10442235;28;20131;-26
2022/12/27 18:56:25;;;;;;;8.00;1.83;;;12.50;89.60;;;;;;10435366;28;20053;-26
2022/12/27 19:01:32;;;;;;;5.50;1.85;;;12.60;97.40;;;;;;10437428;28;20048;-27
2022/12/27 19:06:34;;;;;;;5.68;1.27;;;13.70;91.90;;;;;;10429300;28;20081;-25
2022/12/27 19:11:39;;;;;;;4.18;1.67;;;12.80;95.20;;;;;;10447837;28;20137;-29
2022/12/27 19:16:51;;;;;;;4.90;1.95;;;15.00;85.20;;;;;;10429236;28;20045;-25
2022/12/27 19:21:53;;;;;;;8.77;2.78;;;13.50;92.80;;;;;;10440348;28;20552;-26
2022/12/27 19:26:59;;;;;;;1.60;0.90;;;13.00;81.00;;;;;;10431853;28;20085;-28
2022/12/27 19:32:04;;;;;;;5.03;1.45;;;14.30;92.10;;;;;;10434490;28;20499;-25
2022/12/27 19:37:06;;;;;;;5.13;1.80;;;14.20;91.50;;;;;;10430595;28;20796;-26
2022/12/27 19:42:15;;;;;;;10.60;1.77;;;14.00;92.90;;;;;;10439437;28;20052;-25
2022/12/27 19:47:18;;;;;;;8.95;1.35;;;12.90;90.80;;;;;;10446544;28;20052;-26
2022/12/27 19:52:23;;;;;;;4.65;1.33;;;14.30;93.00;;;;;;10438920;28;20143;-26
2022/12/27 19:57:26;;;;;;;9.82;2.13;;;15.00;88.30;;;;;;10440336;28;20060;-25
2022/12/27 20:02:28;;;;;;;3.50;1.75;;;14.70;86.50;;;;;;10443230;28;20087;-25
2022/12/27 20:07:30;;;;;;;8.07;2.80;;;15.50;87.70;;;;;;10428583;28;20068;-28
2022/12/27 20:12:34;;;;;;;4.88;1.67;;;15.00;90.00;;;;;;10432516;28;20045;-25
2022/12/27 20:17:36;;;;;;;9.70;2.45;;;14.70;87.50;;;;;;10426649;28;20107;-25
2022/12/27 20:22:38;;;;;;;11.95;2.28;;;14.40;72.60;;;;;;10452035;28;20140;-25
2022/12/27 20:27:43;;;;;;;7.03;1.80;;;13.60;78.10;;;;;;10453626;28;20048;-25
2022/12/27 20:32:45;;;;;;;5.35;1.67;;;13.10;94.20;;;;;;10444768;28;20401;-25
2022/12/27 20:37:46;;;;;;;6.72;1.90;;;14.90;90.60;;;;;;10458745;28;20053;-25
2022/12/27 20:42:50;;;;;;;7.05;1.60;;;14.00;91.10;;;;;;10439560;28;20475;-26
2022/12/27 20:47:52;;;;;;;5.35;1.90;;;12.30;90.30;;;;;;10452244;28;20056;-27
2022/12/27 20:52:54;;;;;;;8.98;2.13;;;12.40;99.30;;;;;;10447027;28;20124;-26
2022/12/27 20:58:00;;;;;;;10.10;2.65;;;13.00;81.00;;;;;;10453678;28;20165;-25
2022/12/27 21:03:02;;;;;;;11.30;1.90;;;13.30;92.30;;;;;;10450821;28;20080;-27
2022/12/27 21:08:04;;;;;;;8.95;1.58;;;14.30;92.20;;;;;;10451305;28;20127;-27
2022/12/27 21:13:08;;;;;;;6.55;2.10;;;14.90;89.10;;;;;;10442873;28;20060;-27
2022/12/27 21:18:10;;;;;;;7.00;2.55;;;14.20;90.10;;;;;;10438128;28;20580;-24
2022/12/27 21:23:11;;;;;;;6.93;2.30;;;11.70;88.50;;;;;;10446379;28;20060;-25
2022/12/27 21:28:15;;;;;;;11.15;2.05;;;12.00;88.50;;;;;;10429940;28;20140;-26
2022/12/27 21:33:16;;;;;;;5.97;2.20;;;12.70;97.20;;;;;;10431519;28;20084;-26
2022/12/27 21:38:18;;;;;;;8.88;3.90;;;13.50;93.60;;;;;;10444455;28;20467;-27
2022/12/27 21:43:21;;;;;;;12.45;3.08;;;12.20;92.80;;;;;;10447828;28;20048;-28
2022/12/27 21:48:24;;;;;;;8.07;2.03;;;12.80;98.50;;;;;;10442875;28;20668;-28
2022/12/27 21:53:26;;;;;;;9.90;2.60;;;12.70;97.50;;;;;;10443578;28;20533;-28
2022/12/27 21:58:31;;;;;;;6.03;2.40;;;13.20;83.30;;;;;;10443888;28;20049;-25
2022/12/27 22:03:33;;;;;;;6.90;1.55;;;12.60;89.40;;;;;;10439890;28;20082;-24
2022/12/27 22:08:35;;;;;;;13.90;2.65;;;11.80;99.90;;;;;;10435081;28;20143;-27
2022/12/27 22:13:39;;;;;;;6.15;1.98;;;12.90;94.80;;;;;;10441042;28;20072;-24
2022/12/27 22:18:41;;;;;;;6.35;1.15;;;14.60;88.00;;;;;;10439042;28;20048;-24
2022/12/27 22:23:44;;;;;;;;;;;15.40;82.70;;;;;;10441304;28;20059;-25
2022/12/27 22:28:48;;;;;;;3.28;1.30;;;15.10;85.20;;;;;;10447285;28;19982;-25
2022/12/27 22:33:50;;;;;;;8.15;2.03;;;15.50;83.20;;;;;;10446779;28;20049;-25
2022/12/27 22:38:54;;;;;;;;;;;15.40;85.80;;;;;;10447574;28;20068;-25
2022/12/27 22:43:59;;;;;;;9.57;2.28;;;14.70;87.80;;;;;;10446720;28;19943;-26
2022/12/27 22:49:01;;;;;;;7.28;1.95;;;14.50;90.00;;;;;;10450998;28;20551;-22
2022/12/27 22:54:06;;;;;;;6.55;1.45;;;14.70;88.50;;;;;;10444629;28;20151;-26
2022/12/27 22:59:11;;;;;;;6.53;1.83;;;14.80;88.60;;;;;;10450521;28;20907;-26
2022/12/27 23:04:13;;;;;;;3.83;1.55;;;13.80;93.20;;;;;;10464112;28;20094;-26
2022/12/27 23:09:15;;;;;;;4.93;1.65;;;15.00;86.70;;;;;;10445689;28;20083;-27
2022/12/27 23:14:19;;;;;;;4.87;1.67;;;14.50;90.40;;;;;;10440580;28;20453;-25
2022/12/27 23:19:23;;;;;;;2.78;1.40;;;14.30;90.60;;;;;;10449213;28;20335;-25
2022/12/27 23:24:24;;;;;;;5.57;1.83;;;14.90;86.70;;;;;;10445818;28;20040;-26
2022/12/27 23:29:28;;;;;;;4.80;1.43;;;15.40;81.40;;;;;;10444586;28;20052;-26
2022/12/27 23:34:29;;;;;;;3.75;1.40;;;15.10;85.70;;;;;;10444909;28;20073;-26
2022/12/27 23:39:31;;;;;;;12.50;2.20;;;14.20;91.80;;;;;;10451474;28;20175;-23
2022/12/27 23:44:35;;;;;;;9.48;2.03;;;14.90;85.80;;;;;;10442112;28;20056;-26
2022/12/27 23:49:36;;;;;;;5.55;1.77;;;14.90;84.40;;;;;;10452116;28;20048;-24
2022/12/27 23:54:38;;;;;;;8.67;2.47;;;14.40;80.50;;;;;;10449125;28;20760;-25
2022/12/27 23:59:42;;;;;;;4.67;1.73;;;14.50;86.40;;;;;;10452717;28;20086;-24
